createdAt,value
2024-01-25T00:00:19.550Z,1022.59
2024-01-25T00:01:19.926Z,1022.60
2024-01-25T00:02:20.256Z,1022.52
2024-01-25T00:03:20.496Z,1022.58
2024-01-25T00:04:20.896Z,1022.56
2024-01-25T00:05:21.244Z,1022.60
2024-01-25T00:06:21.420Z,1022.55
2024-01-25T00:07:21.581Z,1022.57
2024-01-25T00:08:21.805Z,1022.56
2024-01-25T00:09:22.165Z,1022.61
2024-01-25T00:10:22.520Z,1022.53
2024-01-25T00:11:22.713Z,1022.50
2024-01-25T00:12:23.027Z,1022.48
2024-01-25T00:13:23.372Z,1022.44
2024-01-25T00:14:23.636Z,1022.41
2024-01-25T00:15:23.971Z,1022.47
2024-01-25T00:16:24.206Z,1022.49
2024-01-25T00:17:24.506Z,1022.48
2024-01-25T00:18:24.810Z,1022.41
2024-01-25T00:19:25.187Z,1022.48
2024-01-25T00:20:25.526Z,1022.48
2024-01-25T00:21:25.649Z,1022.49
2024-01-25T00:22:25.964Z,1022.43
2024-01-25T00:23:26.210Z,1022.44
2024-01-25T00:24:26.689Z,1022.41
2024-01-25T00:25:26.917Z,1022.36
2024-01-25T00:26:27.111Z,1022.35
2024-01-25T00:27:27.507Z,1022.37
2024-01-25T00:28:27.709Z,1022.41
2024-01-25T00:29:28.020Z,1022.36
2024-01-25T00:30:28.369Z,1022.39
2024-01-25T00:31:28.693Z,1022.41
2024-01-25T00:32:29.007Z,1022.47
2024-01-25T00:33:29.372Z,1022.48
2024-01-25T00:34:29.657Z,1022.50
2024-01-25T00:35:29.956Z,1022.51
2024-01-25T00:36:30.172Z,1022.53
2024-01-25T00:37:30.487Z,1022.51
2024-01-25T00:38:30.754Z,1022.55
2024-01-25T00:39:31.071Z,1022.54
2024-01-25T00:40:31.409Z,1022.54
2024-01-25T00:41:31.674Z,1022.47
2024-01-25T00:42:32.021Z,1022.44
2024-01-25T00:43:32.254Z,1022.43
2024-01-25T00:44:32.559Z,1022.49
2024-01-25T00:45:32.883Z,1022.48
2024-01-25T00:46:33.123Z,1022.48
2024-01-25T00:47:33.406Z,1022.52
2024-01-25T00:48:33.838Z,1022.47
2024-01-25T00:49:34.155Z,1022.47
2024-01-25T00:50:34.391Z,1022.45
2024-01-25T00:51:34.539Z,1022.47
2024-01-25T00:52:34.813Z,1022.47
2024-01-25T00:53:35.123Z,1022.51
2024-01-25T00:54:35.431Z,1022.59
2024-01-25T00:55:35.794Z,1022.54
2024-01-25T00:56:36.024Z,1022.59
2024-01-25T00:57:36.420Z,1022.57
2024-01-25T00:58:36.627Z,1022.54
2024-01-25T00:59:36.915Z,1022.51
2024-01-25T01:00:37.426Z,1022.57
2024-01-25T01:01:37.760Z,1022.52
2024-01-25T01:02:37.772Z,1022.49
2024-01-25T01:03:38.066Z,1022.54
2024-01-25T01:04:47.127Z,1022.57
2024-01-25T01:05:39.724Z,1022.62
2024-01-25T01:06:39.059Z,1022.63
2024-01-25T01:07:39.287Z,1022.67
2024-01-25T01:08:39.442Z,1022.69
2024-01-25T01:09:39.817Z,1022.66
2024-01-25T01:10:40.027Z,1022.69
2024-01-25T01:11:40.361Z,1022.64
2024-01-25T01:12:40.644Z,1022.60
2024-01-25T01:13:40.929Z,1022.64
2024-01-25T01:14:41.215Z,1022.71
2024-01-25T01:15:41.548Z,1022.75
2024-01-25T01:16:41.832Z,1022.76
2024-01-25T01:17:42.184Z,1022.73
2024-01-25T01:18:42.592Z,1022.74
2024-01-25T01:19:42.803Z,1022.72
2024-01-25T01:20:42.979Z,1022.65
2024-01-25T01:21:43.277Z,1022.71
2024-01-25T01:22:43.524Z,1022.75
2024-01-25T01:23:43.840Z,1022.79
2024-01-25T01:24:44.188Z,1022.81
2024-01-25T01:25:44.447Z,1022.94
2024-01-25T01:26:44.711Z,1022.95
2024-01-25T01:27:45.054Z,1022.95
2024-01-25T01:28:45.397Z,1022.91
2024-01-25T01:29:45.659Z,1022.93
2024-01-25T01:30:46.058Z,1022.89
2024-01-25T01:31:46.331Z,1022.86
2024-01-25T01:32:46.758Z,1022.83
2024-01-25T01:33:47.152Z,1022.79
2024-01-25T01:34:47.390Z,1022.82
2024-01-25T01:35:47.602Z,1022.91
2024-01-25T01:36:47.931Z,1022.94
2024-01-25T01:37:48.152Z,1022.97
2024-01-25T01:38:48.422Z,1022.94
2024-01-25T01:39:48.749Z,1022.94
2024-01-25T01:40:49.044Z,1022.93
2024-01-25T01:41:49.408Z,1022.90
2024-01-25T01:42:49.759Z,1022.87
2024-01-25T01:43:49.990Z,1022.86
2024-01-25T01:44:50.289Z,1022.90
2024-01-25T01:45:50.644Z,1022.95
2024-01-25T01:46:50.836Z,1022.95
2024-01-25T01:47:51.366Z,1022.97
2024-01-25T01:48:51.664Z,1022.98
2024-01-25T01:49:51.885Z,1022.98
2024-01-25T01:50:52.239Z,1023.04
2024-01-25T01:51:52.328Z,1023.00
2024-01-25T01:52:52.637Z,1023.01
2024-01-25T01:54:00.354Z,1022.98
2024-01-25T01:54:53.114Z,1023.00
2024-01-25T01:55:55.966Z,1022.91
2024-01-25T01:56:56.320Z,1022.97
2024-01-25T01:57:54.062Z,1022.95
2024-01-25T01:58:54.305Z,1022.97
2024-01-25T01:59:54.603Z,1022.92
2024-01-25T02:00:54.933Z,1022.99
2024-01-25T02:01:55.333Z,1022.92
2024-01-25T02:02:55.494Z,1022.94
2024-01-25T02:03:55.787Z,1022.95
2024-01-25T02:04:56.033Z,1022.94
2024-01-25T02:05:56.441Z,1022.95
2024-01-25T02:06:56.785Z,1022.99
2024-01-25T02:07:56.897Z,1022.91
2024-01-25T02:08:57.198Z,1022.94
2024-01-25T02:09:57.476Z,1022.93
2024-01-25T02:10:57.757Z,1022.89
2024-01-25T02:11:57.994Z,1022.92
2024-01-25T02:12:58.328Z,1022.95
2024-01-25T02:13:58.602Z,1022.98
2024-01-25T02:14:58.854Z,1023.01
2024-01-25T02:15:59.210Z,1023.01
2024-01-25T02:16:59.448Z,1023.01
2024-01-25T02:17:59.743Z,1023.04
2024-01-25T02:19:00.074Z,1023.02
2024-01-25T02:20:00.814Z,1023.05
2024-01-25T02:21:00.646Z,1023.02
2024-01-25T02:22:00.886Z,1023.09
2024-01-25T02:23:01.152Z,1023.03
2024-01-25T02:24:01.456Z,1023.06
2024-01-25T02:25:01.782Z,1023.13
2024-01-25T02:26:02.061Z,1023.08
2024-01-25T02:27:02.331Z,1023.04
2024-01-25T02:28:02.656Z,1023.05
2024-01-25T02:29:02.893Z,1023.05
2024-01-25T02:30:03.151Z,1023.07
2024-01-25T02:31:03.516Z,1023.12
2024-01-25T02:32:03.711Z,1023.15
2024-01-25T02:33:04.121Z,1023.16
2024-01-25T02:34:04.545Z,1023.20
2024-01-25T02:35:04.775Z,1023.24
2024-01-25T02:36:04.992Z,1023.30
2024-01-25T02:37:05.275Z,1023.28
2024-01-25T02:38:05.527Z,1023.30
2024-01-25T02:39:05.797Z,1023.28
2024-01-25T02:40:06.067Z,1023.30
2024-01-25T02:41:06.452Z,1023.32
2024-01-25T02:42:06.638Z,1023.32
2024-01-25T02:43:06.915Z,1023.30
2024-01-25T02:44:07.162Z,1023.33
2024-01-25T02:45:07.423Z,1023.30
2024-01-25T02:46:07.762Z,1023.35
2024-01-25T02:47:08.012Z,1023.41
2024-01-25T02:48:08.439Z,1023.43
2024-01-25T02:49:08.820Z,1023.39
2024-01-25T02:50:08.908Z,1023.44
2024-01-25T02:51:09.216Z,1023.40
2024-01-25T02:52:09.500Z,1023.39
2024-01-25T02:53:09.780Z,1023.40
2024-01-25T02:54:10.030Z,1023.47
2024-01-25T02:55:10.339Z,1023.45
2024-01-25T02:56:10.620Z,1023.55
2024-01-25T02:57:10.852Z,1023.51
2024-01-25T02:58:11.254Z,1023.52
2024-01-25T02:59:11.409Z,1023.48
2024-01-25T03:00:11.736Z,1023.45
2024-01-25T03:01:12.115Z,1023.48
2024-01-25T03:02:12.318Z,1023.49
2024-01-25T03:03:12.538Z,1023.53
2024-01-25T03:04:12.911Z,1023.47
2024-01-25T03:05:13.253Z,1023.46
2024-01-25T03:06:13.574Z,1023.45
2024-01-25T03:07:13.737Z,1023.43
2024-01-25T03:08:13.989Z,1023.46
2024-01-25T03:09:14.261Z,1023.46
2024-01-25T03:10:14.878Z,1023.49
2024-01-25T03:11:14.799Z,1023.47
2024-01-25T03:12:15.060Z,1023.48
2024-01-25T03:13:15.490Z,1023.48
2024-01-25T03:14:15.651Z,1023.42
2024-01-25T03:15:15.919Z,1023.45
2024-01-25T03:16:16.333Z,1023.43
2024-01-25T03:17:16.445Z,1023.41
2024-01-25T03:18:16.804Z,1023.37
2024-01-25T03:19:17.053Z,1023.36
2024-01-25T03:20:17.427Z,1023.36
2024-01-25T03:21:17.672Z,1023.36
2024-01-25T03:22:18.036Z,1023.35
2024-01-25T03:23:18.137Z,1023.32
2024-01-25T03:24:18.399Z,1023.31
2024-01-25T03:25:18.686Z,1023.29
2024-01-25T03:26:18.936Z,1023.28
2024-01-25T03:27:19.200Z,1023.32
2024-01-25T03:28:19.520Z,1023.30
2024-01-25T03:29:19.771Z,1023.32
2024-01-25T03:30:20.025Z,1023.33
2024-01-25T03:31:20.541Z,1023.27
2024-01-25T03:32:20.591Z,1023.28
2024-01-25T03:33:20.953Z,1023.25
2024-01-25T03:34:21.567Z,1023.36
2024-01-25T12:41:32.011Z,1023.20
2024-01-25T12:42:25.079Z,1023.24
2024-01-25T12:43:25.449Z,1023.29
2024-01-25T12:44:25.528Z,1023.34
2024-01-25T12:45:26.724Z,1023.32
2024-01-25T12:46:28.058Z,1023.30
2024-01-25T12:47:26.698Z,1023.31
2024-01-25T12:48:26.939Z,1023.31
2024-01-25T12:49:27.135Z,1023.28
2024-01-25T12:50:36.143Z,1023.21
2024-01-25T12:51:28.003Z,1023.10
2024-01-25T12:52:28.065Z,1023.00
2024-01-25T12:53:28.192Z,1023.00
2024-01-25T12:54:28.570Z,1022.98
2024-01-25T12:55:28.842Z,1023.06
2024-01-25T12:56:29.169Z,1023.05
2024-01-25T12:57:29.527Z,1023.15
2024-01-25T12:58:29.773Z,1023.19
2024-01-25T12:59:30.123Z,1023.16
2024-01-25T13:00:30.394Z,1023.24
2024-01-25T13:01:30.830Z,1023.20
2024-01-25T13:02:30.958Z,1023.19
2024-01-25T13:03:31.272Z,1023.17
2024-01-25T13:04:31.524Z,1023.14
2024-01-25T13:05:31.766Z,1023.10
2024-01-25T13:06:32.118Z,1023.11
2024-01-25T13:07:32.237Z,1023.09
2024-01-25T13:08:32.536Z,1023.06
2024-01-25T13:09:32.902Z,1023.00
2024-01-25T13:10:33.184Z,1022.98
2024-01-25T13:11:33.320Z,1023.05
2024-01-25T13:12:33.641Z,1023.03
2024-01-25T13:13:33.934Z,1023.04
2024-01-25T13:14:34.218Z,1023.06
2024-01-25T13:15:34.506Z,1023.11
2024-01-25T13:16:34.859Z,1023.07
2024-01-25T13:17:35.120Z,1023.05
2024-01-25T13:18:35.512Z,1022.93
2024-01-25T13:19:35.781Z,1022.90
2024-01-25T13:20:35.982Z,1022.83
2024-01-25T13:21:36.266Z,1022.76
2024-01-25T13:22:36.491Z,1022.77
2024-01-25T13:23:37.672Z,1022.73
2024-01-25T13:24:37.312Z,1022.77
2024-01-25T13:25:37.365Z,1022.76
2024-01-25T13:26:37.697Z,1022.76
2024-01-25T13:27:38.028Z,1022.74
2024-01-25T13:28:38.332Z,1022.72
2024-01-25T13:29:39.092Z,1022.68
2024-01-25T13:30:39.120Z,1022.68
2024-01-25T13:31:39.405Z,1022.66
2024-01-25T13:32:39.591Z,1022.68
2024-01-25T13:33:39.849Z,1022.72
2024-01-25T13:34:40.462Z,1022.76
2024-01-25T13:35:40.250Z,1022.73
2024-01-25T13:36:40.625Z,1022.73
2024-01-25T13:37:40.833Z,1022.77
2024-01-25T13:38:41.133Z,1022.73
2024-01-25T13:39:41.513Z,1022.75
2024-01-25T13:40:41.783Z,1022.76
2024-01-25T13:41:42.096Z,1022.67
2024-01-25T13:42:42.470Z,1022.63
2024-01-25T13:43:42.758Z,1022.51
2024-01-25T13:44:43.128Z,1022.44
2024-01-25T13:45:50.436Z,1022.42
2024-01-25T13:46:43.665Z,1022.41
2024-01-25T13:47:43.994Z,1022.43
2024-01-25T13:48:44.385Z,1022.42
2024-01-25T13:49:44.643Z,1022.40
2024-01-25T13:50:44.899Z,1022.42
2024-01-25T13:51:52.312Z,1022.37
2024-01-25T13:52:45.470Z,1022.33
2024-01-25T13:53:45.818Z,1022.33
2024-01-25T13:54:46.127Z,1022.31
2024-01-25T13:55:46.394Z,1022.29
2024-01-25T13:56:46.773Z,1022.32
2024-01-25T13:57:46.965Z,1022.26
2024-01-25T13:58:47.245Z,1022.26
2024-01-25T13:59:47.512Z,1022.22
2024-01-25T14:00:47.883Z,1022.20
2024-01-25T14:01:48.197Z,1022.17
2024-01-25T14:02:48.491Z,1022.19
2024-01-25T14:03:48.828Z,1022.24
2024-01-25T14:04:49.993Z,1022.23
2024-01-25T14:05:49.300Z,1022.26
2024-01-25T14:06:49.668Z,1022.24
2024-01-25T14:07:56.928Z,1022.24
2024-01-25T14:08:50.168Z,1022.21
2024-01-25T14:10:56.477Z,1022.26
2024-01-25T14:11:56.717Z,1022.28
2024-01-25T14:12:57.019Z,1022.20
2024-01-25T14:13:57.285Z,1022.22
2024-01-25T14:14:57.740Z,1022.21
2024-01-25T14:15:57.888Z,1022.18
2024-01-25T14:16:58.147Z,1022.16
2024-01-25T14:17:58.458Z,1022.15
2024-01-25T14:18:58.739Z,1022.16
2024-01-25T14:19:59.170Z,1022.16
2024-01-25T14:20:59.188Z,1022.22
2024-01-25T14:22:09.266Z,1022.23
2024-01-25T14:23:00.863Z,1022.22
2024-01-25T14:24:00.186Z,1022.18
2024-01-25T14:25:00.624Z,1022.12
2024-01-25T14:26:00.757Z,1022.12
2024-01-25T14:27:00.979Z,1022.09
2024-01-25T14:28:01.266Z,1022.09
2024-01-25T14:29:01.533Z,1022.16
2024-01-25T14:30:01.967Z,1022.18
2024-01-25T14:31:02.206Z,1022.17
2024-01-25T14:32:02.410Z,1022.14
2024-01-25T14:33:02.711Z,1022.13
2024-01-25T14:34:02.951Z,1022.14
2024-01-25T14:35:03.302Z,1022.24
2024-01-25T14:36:03.533Z,1022.22
2024-01-25T14:37:03.819Z,1022.24
2024-01-25T14:38:05.068Z,1022.27
2024-01-25T14:39:04.400Z,1022.25
2024-01-25T14:40:18.805Z,1022.20
2024-01-25T14:41:05.984Z,1022.15
2024-01-25T14:42:05.328Z,1022.11
2024-01-25T14:43:05.591Z,1022.12
2024-01-25T14:44:05.818Z,1022.04
2024-01-25T14:45:06.100Z,1022.01
2024-01-25T14:46:06.463Z,1022.01
2024-01-25T14:47:06.713Z,1022.03
2024-01-25T14:48:07.015Z,1022.08
2024-01-25T14:49:07.337Z,1022.04
2024-01-25T14:50:07.643Z,1022.04
2024-01-25T14:51:07.894Z,1022.05
2024-01-25T14:52:08.194Z,1022.04
2024-01-25T14:53:08.489Z,1022.06
2024-01-25T14:54:08.782Z,1022.07
2024-01-25T14:55:09.180Z,1022.06
2024-01-25T14:56:09.282Z,1022.07
2024-01-25T14:57:09.569Z,1022.07
2024-01-25T14:58:09.867Z,1022.06
2024-01-25T14:59:10.120Z,1022.05
2024-01-25T15:00:10.427Z,1022.06
2024-01-25T15:01:10.834Z,1022.06
2024-01-25T15:02:10.986Z,1022.04
2024-01-25T15:03:11.342Z,1022.08
2024-01-25T15:04:11.616Z,1022.06
2024-01-25T15:05:11.976Z,1022.01
2024-01-25T15:06:12.325Z,1022.02
2024-01-25T15:07:12.506Z,1022.00
2024-01-25T15:08:12.773Z,1021.98
2024-01-25T15:09:13.029Z,1021.95
2024-01-25T15:10:13.337Z,1021.91
2024-01-25T15:11:13.619Z,1021.85
2024-01-25T15:12:13.966Z,1021.83
2024-01-25T15:13:14.234Z,1021.82
2024-01-25T15:14:14.636Z,1021.80
2024-01-25T15:15:14.984Z,1021.85
2024-01-25T15:16:17.839Z,1021.86
2024-01-25T15:17:15.502Z,1021.88
2024-01-25T15:18:15.977Z,1021.86
2024-01-25T15:19:16.207Z,1021.78
2024-01-25T15:20:16.300Z,1021.80
2024-01-25T15:21:16.654Z,1021.71
2024-01-25T15:22:16.939Z,1021.71
2024-01-25T15:23:17.200Z,1021.76
2024-01-25T15:24:17.551Z,1021.74
2024-01-25T15:25:17.807Z,1021.70
2024-01-25T15:26:18.079Z,1021.65
2024-01-25T15:27:18.533Z,1021.65
2024-01-25T15:28:21.090Z,1021.63
2024-01-25T15:29:19.072Z,1021.59
2024-01-25T15:30:19.448Z,1021.57
2024-01-25T15:31:19.684Z,1021.60
2024-01-25T15:32:20.011Z,1021.63
2024-01-25T15:33:20.460Z,1021.64
2024-01-25T15:34:20.887Z,1021.59
2024-01-25T15:35:20.895Z,1021.65
2024-01-25T15:36:21.230Z,1021.62
2024-01-25T15:37:21.560Z,1021.63
2024-01-25T15:38:21.758Z,1021.64
2024-01-25T15:39:22.044Z,1021.60
2024-01-25T15:40:22.339Z,1021.57
2024-01-25T15:41:22.618Z,1021.63
2024-01-25T15:42:22.980Z,1021.59
2024-01-25T15:43:23.238Z,1021.54
2024-01-25T15:44:23.487Z,1021.55
2024-01-25T15:45:23.806Z,1021.52
2024-01-25T15:46:24.059Z,1021.52
2024-01-25T15:47:24.461Z,1021.47
2024-01-25T15:48:24.579Z,1021.50
2024-01-25T15:49:25.731Z,1021.48
2024-01-25T15:50:25.243Z,1021.45
2024-01-25T15:51:25.563Z,1021.45
2024-01-25T15:52:25.898Z,1021.43
2024-01-25T15:53:26.054Z,1021.41
2024-01-25T15:56:47.225Z,1021.41
2024-01-25T15:57:47.643Z,1021.49
2024-01-25T15:58:47.762Z,1021.44
2024-01-25T15:59:48.084Z,1021.44
2024-01-25T16:00:48.418Z,1021.42
2024-01-25T16:01:48.701Z,1021.48
2024-01-25T16:02:48.992Z,1021.47
2024-01-25T16:03:49.318Z,1021.46
2024-01-25T16:04:49.581Z,1021.45
2024-01-25T16:05:49.979Z,1021.44
2024-01-25T16:06:50.213Z,1021.48
2024-01-25T16:07:50.519Z,1021.44
2024-01-25T16:08:50.732Z,1021.47
2024-01-25T16:09:51.070Z,1021.45
2024-01-25T16:10:51.325Z,1021.46
2024-01-25T16:11:51.605Z,1021.50
2024-01-25T16:12:52.128Z,1021.46
2024-01-25T16:13:52.120Z,1021.44
2024-01-25T16:14:52.416Z,1021.44
2024-01-25T16:15:52.748Z,1021.44
2024-01-25T16:16:53.008Z,1021.40
2024-01-25T16:17:53.389Z,1021.42
2024-01-25T16:18:53.872Z,1021.42
2024-01-25T16:20:01.184Z,1021.43
2024-01-25T16:20:54.125Z,1021.41
2024-01-25T16:21:54.480Z,1021.40
2024-01-25T16:22:54.738Z,1021.43
2024-01-25T16:23:55.045Z,1021.41
2024-01-25T16:24:55.370Z,1021.44
2024-01-25T16:25:55.628Z,1021.44
2024-01-25T16:26:55.914Z,1021.44
2024-01-25T16:27:56.328Z,1021.49
2024-01-25T16:28:56.463Z,1021.44
2024-01-25T16:29:56.737Z,1021.44
2024-01-25T16:30:57.035Z,1021.42
2024-01-25T16:31:57.324Z,1021.39
2024-01-25T16:32:57.612Z,1021.40
2024-01-25T16:33:58.010Z,1021.39
2024-01-25T16:34:58.164Z,1021.33
2024-01-25T16:35:59.151Z,1021.37
2024-01-25T16:36:58.681Z,1021.40
2024-01-25T16:37:58.964Z,1021.36
2024-01-25T16:38:59.189Z,1021.35
2024-01-25T16:39:59.530Z,1021.38
2024-01-25T16:40:59.766Z,1021.33
2024-01-25T16:42:00.054Z,1021.35
2024-01-25T16:43:00.388Z,1021.29
2024-01-25T16:44:00.609Z,1021.27
2024-01-25T16:45:00.963Z,1021.29
2024-01-25T16:46:01.319Z,1021.30
2024-01-25T16:47:01.556Z,1021.26
2024-01-25T16:48:01.952Z,1021.27
2024-01-25T16:49:02.457Z,1021.28
2024-01-25T16:50:02.547Z,1021.30
2024-01-25T16:51:02.677Z,1021.27
2024-01-25T16:52:02.977Z,1021.28
2024-01-25T16:53:03.205Z,1021.30
2024-01-25T16:54:03.479Z,1021.26
2024-01-25T16:55:03.844Z,1021.26
2024-01-25T16:56:04.144Z,1021.25
2024-01-25T16:57:04.226Z,1021.24
2024-01-25T16:58:04.502Z,1021.24
2024-01-25T16:59:04.793Z,1021.28
2024-01-25T17:00:05.041Z,1021.32
2024-01-25T17:01:05.426Z,1021.31
2024-01-25T17:02:05.664Z,1021.29
2024-01-25T17:03:06.152Z,1021.31
2024-01-25T17:04:07.121Z,1021.29
2024-01-25T17:05:06.645Z,1021.30
2024-01-25T17:06:06.907Z,1021.26
2024-01-25T17:07:07.190Z,1021.28
2024-01-25T17:08:07.428Z,1021.22
2024-01-25T17:09:07.742Z,1021.16
2024-01-25T17:10:07.949Z,1021.19
2024-01-25T17:11:08.212Z,1021.16
2024-01-25T17:12:08.468Z,1021.15
2024-01-25T17:13:08.745Z,1021.13
2024-01-25T17:14:09.009Z,1021.08
2024-01-25T17:15:09.278Z,1021.12
2024-01-25T17:16:09.591Z,1021.10
2024-01-25T17:17:09.843Z,1021.06
2024-01-25T17:18:10.706Z,1021.11
2024-01-25T17:19:11.485Z,1021.08
2024-01-25T17:20:10.711Z,1021.06
2024-01-25T17:21:10.972Z,1020.99
2024-01-25T17:22:11.259Z,1020.96
2024-01-25T17:23:11.543Z,1020.93
2024-01-25T17:24:11.799Z,1020.89
2024-01-25T17:25:12.075Z,1020.86
2024-01-25T17:26:12.365Z,1020.86
2024-01-25T17:27:12.613Z,1020.88
2024-01-25T17:28:12.916Z,1020.88
2024-01-25T17:29:13.250Z,1020.88
2024-01-25T17:30:13.549Z,1020.88
2024-01-25T17:31:13.759Z,1020.93
2024-01-25T17:32:22.969Z,1020.95
2024-01-25T17:33:14.581Z,1020.99
2024-01-25T17:34:17.255Z,1020.99
2024-01-25T17:35:14.935Z,1021.00
2024-01-25T17:36:15.353Z,1021.04
2024-01-25T17:37:15.471Z,1020.99
2024-01-25T17:38:15.759Z,1021.02
2024-01-25T17:39:16.028Z,1021.05
2024-01-25T17:40:16.323Z,1021.04
2024-01-25T17:41:16.556Z,1021.07
2024-01-25T17:42:16.879Z,1021.08
2024-01-25T17:43:24.488Z,1021.07
2024-01-25T17:44:18.371Z,1021.03
2024-01-25T17:45:17.740Z,1021.07
2024-01-25T17:46:18.049Z,1021.05
2024-01-25T17:47:18.227Z,1021.01
2024-01-25T17:48:18.678Z,1020.97
2024-01-25T17:49:18.937Z,1020.94
2024-01-25T17:50:19.134Z,1020.94
2024-01-25T17:51:19.474Z,1020.94
2024-01-25T17:52:19.712Z,1020.90
2024-01-25T17:53:20.013Z,1020.95
2024-01-25T17:54:20.364Z,1020.94
2024-01-25T17:55:20.543Z,1020.99
2024-01-25T17:56:28.291Z,1020.98
2024-01-25T17:57:21.183Z,1020.98
2024-01-25T17:58:21.399Z,1020.96
2024-01-25T17:59:21.636Z,1020.96
2024-01-25T18:00:21.941Z,1021.04
2024-01-25T18:01:22.350Z,1021.01
2024-01-25T18:02:22.457Z,1021.05
2024-01-25T18:03:22.975Z,1021.02
2024-01-25T18:04:23.008Z,1021.05
2024-01-25T18:05:23.312Z,1021.00
2024-01-25T18:06:23.640Z,1021.03
2024-01-25T18:07:23.851Z,1021.04
2024-01-25T18:08:24.140Z,1021.03
2024-01-25T18:09:24.434Z,1021.01
2024-01-25T18:10:24.692Z,1021.02
2024-01-25T18:11:24.955Z,1020.99
2024-01-25T18:12:25.219Z,1021.03
2024-01-25T18:13:25.477Z,1020.97
2024-01-25T18:14:25.728Z,1021.00
2024-01-25T18:15:26.015Z,1020.99
2024-01-25T18:16:26.325Z,1021.02
2024-01-25T18:17:26.591Z,1021.04
2024-01-25T18:18:26.869Z,1021.03
2024-01-25T18:19:27.154Z,1021.04
2024-01-25T18:20:27.395Z,1021.05
2024-01-25T18:21:27.676Z,1021.05
2024-01-25T18:22:27.895Z,1021.12
2024-01-25T18:23:28.144Z,1021.06
2024-01-25T18:24:28.405Z,1021.04
2024-01-25T18:25:28.729Z,1021.06
2024-01-25T18:26:28.934Z,1021.02
2024-01-25T18:27:29.274Z,1021.06
2024-01-25T18:28:29.513Z,1021.03
2024-01-25T18:29:29.772Z,1021.01
2024-01-25T18:30:30.145Z,1021.00
2024-01-25T18:31:30.338Z,1021.02
2024-01-25T18:32:30.609Z,1021.00
2024-01-25T18:33:30.989Z,1020.98
2024-01-25T18:34:31.308Z,1021.01
2024-01-25T18:35:31.392Z,1020.98
2024-01-25T18:36:31.738Z,1020.97
2024-01-25T18:37:31.965Z,1020.99
2024-01-25T18:38:32.229Z,1020.97
2024-01-25T18:39:32.520Z,1020.98
2024-01-25T18:40:32.788Z,1020.97
2024-01-25T18:41:33.064Z,1021.00
2024-01-25T18:42:33.391Z,1021.05
2024-01-25T18:43:33.620Z,1021.05
2024-01-25T18:44:33.838Z,1021.05
2024-01-25T18:45:34.113Z,1021.06
2024-01-25T18:46:34.348Z,1021.07
2024-01-25T18:47:34.621Z,1021.06
2024-01-25T18:48:35.003Z,1021.03
2024-01-25T18:49:35.283Z,1021.01
2024-01-25T18:50:35.494Z,1021.01
2024-01-25T18:51:44.233Z,1020.96
2024-01-25T18:52:37.009Z,1021.00
2024-01-25T18:53:37.125Z,1020.99
2024-01-25T18:54:36.787Z,1021.00
2024-01-25T18:55:37.002Z,1021.00
2024-01-25T18:56:37.304Z,1021.01
2024-01-25T18:57:38.097Z,1020.96
2024-01-25T18:58:38.815Z,1021.03
2024-01-25T18:59:38.180Z,1020.99
2024-01-25T19:00:38.639Z,1021.04
2024-01-25T19:01:39.018Z,1021.06
2024-01-25T19:02:39.110Z,1021.06
2024-01-25T19:03:39.419Z,1021.07
2024-01-25T19:04:39.918Z,1021.09
2024-01-25T19:05:40.142Z,1021.14
2024-01-25T19:06:40.279Z,1021.10
2024-01-25T19:07:40.526Z,1021.09
2024-01-25T19:08:40.814Z,1021.11
2024-01-25T19:09:41.180Z,1021.08
2024-01-25T19:10:41.386Z,1021.07
2024-01-25T19:11:41.715Z,1021.03
2024-01-25T19:12:42.244Z,1021.03
2024-01-25T19:13:42.476Z,1021.06
2024-01-25T19:14:42.609Z,1021.06
2024-01-25T19:15:43.735Z,1021.04
2024-01-25T19:16:43.788Z,1021.06
2024-01-25T19:17:43.974Z,1021.02
2024-01-25T19:18:44.172Z,1021.06
2024-01-25T19:19:44.148Z,1021.03
2024-01-25T19:20:44.539Z,1021.01
2024-01-25T19:21:52.005Z,1021.01
2024-01-25T19:22:44.690Z,1020.99
2024-01-25T19:23:44.980Z,1020.98
2024-01-25T19:24:45.280Z,1020.97
2024-01-25T19:25:45.512Z,1020.95
2024-01-25T19:26:45.806Z,1020.98
2024-01-25T19:27:46.143Z,1020.98
2024-01-25T19:28:46.449Z,1020.96
2024-01-25T19:29:46.729Z,1020.96
2024-01-25T19:30:47.055Z,1020.97
2024-01-25T19:31:47.330Z,1021.00
2024-01-25T19:32:47.595Z,1020.99
2024-01-25T19:33:47.982Z,1020.98
2024-01-25T19:34:48.264Z,1020.99
2024-01-25T19:35:49.109Z,1020.96
2024-01-25T19:36:48.894Z,1021.02
2024-01-25T19:37:49.135Z,1021.01
2024-01-25T19:38:49.195Z,1020.98
2024-01-25T19:39:49.536Z,1020.92
2024-01-25T19:40:49.741Z,1020.95
2024-01-25T19:41:49.991Z,1020.96
2024-01-25T19:42:50.283Z,1020.96
2024-01-25T19:43:50.513Z,1020.96
2024-01-25T19:44:50.807Z,1020.93
2024-01-25T19:45:51.064Z,1020.91
2024-01-25T19:46:51.301Z,1020.97
2024-01-25T19:47:51.620Z,1020.94
2024-01-25T19:48:52.118Z,1020.99
2024-01-25T19:49:52.262Z,1020.99
2024-01-25T19:50:52.489Z,1021.01
2024-01-25T19:51:52.774Z,1020.99
2024-01-25T19:52:53.082Z,1021.04
2024-01-25T19:53:53.307Z,1021.05
2024-01-25T19:54:53.652Z,1020.96
2024-01-25T19:55:53.874Z,1021.02
2024-01-25T19:56:54.133Z,1020.92
2024-01-25T19:57:54.440Z,1020.93
2024-01-25T19:58:54.644Z,1020.92
2024-01-25T19:59:54.923Z,1020.86
2024-01-25T20:00:55.349Z,1020.84
2024-01-25T20:01:55.497Z,1020.90
2024-01-25T20:02:55.826Z,1020.84
2024-01-25T20:03:56.329Z,1020.85
2024-01-25T20:04:56.452Z,1020.84
2024-01-25T20:05:56.716Z,1020.86
2024-01-25T20:06:57.062Z,1020.81
2024-01-25T20:07:57.364Z,1020.77
2024-01-25T20:08:57.542Z,1020.77
2024-01-25T20:09:58.097Z,1020.77
2024-01-25T20:10:58.090Z,1020.74
2024-01-25T20:11:58.376Z,1020.72
2024-01-25T20:12:58.675Z,1020.62
2024-01-25T20:13:58.942Z,1020.65
2024-01-25T20:14:59.231Z,1020.62
2024-01-25T20:15:59.611Z,1020.71
2024-01-25T20:16:59.826Z,1020.62
2024-01-25T20:18:00.178Z,1020.62
2024-01-25T20:19:00.639Z,1020.56
2024-01-25T20:20:01.071Z,1020.58
2024-01-25T20:21:01.596Z,1020.60
2024-01-25T20:22:01.348Z,1020.56
2024-01-25T20:23:01.572Z,1020.56
2024-01-25T20:24:01.820Z,1020.53
2024-01-25T20:25:02.274Z,1020.50
2024-01-25T20:26:02.385Z,1020.44
2024-01-25T20:27:02.844Z,1020.48
2024-01-25T20:28:03.053Z,1020.44
2024-01-25T20:29:03.176Z,1020.46
2024-01-25T20:30:03.461Z,1020.49
2024-01-25T20:31:03.741Z,1020.43
2024-01-25T20:32:03.985Z,1020.41
2024-01-25T20:33:04.391Z,1020.38
2024-01-25T20:34:04.591Z,1020.37
2024-01-25T20:35:04.965Z,1020.36
2024-01-25T20:36:05.072Z,1020.33
2024-01-25T20:37:05.481Z,1020.35
2024-01-25T20:38:05.591Z,1020.39
2024-01-25T20:39:05.901Z,1020.36
2024-01-25T20:40:09.485Z,1020.39
2024-01-25T20:41:06.439Z,1020.43
2024-01-25T20:42:06.710Z,1020.47
2024-01-25T20:43:07.024Z,1020.47
2024-01-25T20:44:07.281Z,1020.44
2024-01-25T20:45:07.913Z,1020.37
2024-01-25T20:46:08.014Z,1020.31
2024-01-25T20:47:08.162Z,1020.33
2024-01-25T20:48:08.529Z,1020.32
2024-01-25T20:49:08.708Z,1020.30
2024-01-25T20:50:10.830Z,1020.31
2024-01-25T20:51:09.324Z,1020.34
2024-01-25T20:52:09.578Z,1020.40
2024-01-25T20:53:09.848Z,1020.42
2024-01-25T20:54:10.134Z,1020.42
2024-01-25T20:55:10.397Z,1020.48
2024-01-25T20:56:10.658Z,1020.44
2024-01-25T20:57:10.871Z,1020.42
2024-01-25T20:58:11.146Z,1020.50
2024-01-25T20:59:11.379Z,1020.45
2024-01-25T21:00:11.673Z,1020.46
2024-01-25T21:01:11.994Z,1020.46
2024-01-25T21:02:12.221Z,1020.47
2024-01-25T21:03:12.510Z,1020.46
2024-01-25T21:04:12.793Z,1020.49
2024-01-25T21:05:13.057Z,1020.52
2024-01-25T21:06:13.317Z,1020.52
2024-01-25T21:07:13.584Z,1020.52
2024-01-25T21:08:13.805Z,1020.53
2024-01-25T21:09:14.053Z,1020.53
2024-01-25T21:10:14.351Z,1020.50
2024-01-25T21:11:14.576Z,1020.47
2024-01-25T21:12:14.820Z,1020.44
2024-01-25T21:13:15.056Z,1020.46
2024-01-25T21:14:15.391Z,1020.43
2024-01-25T21:15:15.644Z,1020.43
2024-01-25T21:16:15.931Z,1020.43
2024-01-25T21:17:16.176Z,1020.37
2024-01-25T21:18:16.564Z,1020.39